Time;durP1;ratioP1;P1;durP2;ratioP2;P2;SDS_P1;SDS_P2;PMS_P1;PMS_P2;Temp;Humidity;BMP_temperature;BMP_pressure;BME280_temperature;BME280_humidity;BME280_pressure;Samples;Min_cycle;Max_cycle;Signal;HPM_P1;HPM_P2
2024/01/18 00:01:10;;;;;;;;;;;;;;;;;;5014449;28;860;-72
2024/01/18 00:03:37;;;;;;;;;;;;;;;;;;5012827;28;1192;-72
2024/01/18 00:06:03;;;;;;;;;;;;;;;;;;5011683;28;1973;-71
2024/01/18 00:08:28;;;;;;;;;;;;;;;;;;5013703;28;802;-72
2024/01/18 00:10:53;;;;;;;;;;;;;;;;;;5014819;28;1189;-72
2024/01/18 00:13:18;;;;;;;;;;;;;;;;;;5021831;28;1138;-72
2024/01/18 00:15:43;;;;;;;;;;;;;;;;;;5027746;28;1213;-72
2024/01/18 00:18:10;;;;;;;;;;;;;;;;;;5026707;28;1316;-72
2024/01/18 00:20:35;;;;;;;;;;;;;;;;;;5033733;28;1170;-72
2024/01/18 00:23:01;;;;;;;;;;;;;;;;;;5030063;28;1266;-72
2024/01/18 00:25:26;;;;;;;;;;;;;;;;;;5032127;28;1977;-69
2024/01/18 00:27:51;;;;;;;;;;;;;;;;;;5032516;28;1133;-72
2024/01/18 00:30:18;;;;;;;;;;;;;;;;;;5031960;28;1185;-72
2024/01/18 00:32:43;;;;;;;;;;;;;;;;;;5032208;28;1229;-70
2024/01/18 00:35:08;;;;;;;;;;;;;;;;;;5032182;28;1201;-70
2024/01/18 00:37:34;;;;;;;;;;;;;;;;;;5013150;28;1166;-71
2024/01/18 00:39:59;;;;;;;;;;;;;;;;;;5006413;28;1217;-71
2024/01/18 00:42:25;;;;;;;;;;;;;;;;;;5035127;28;1212;-71
2024/01/18 00:44:50;;;;;;;;;;;;;;;;;;5019328;28;1156;-71
2024/01/18 00:47:15;;;;;;;;;;;;;;;;;;5037485;28;1887;-71
2024/01/18 00:49:40;;;;;;;;;;;;;;;;;;5037193;28;829;-71
2024/01/18 00:52:06;;;;;;;;;;;;;;;;;;5018014;28;1173;-71
2024/01/18 00:54:31;;;;;;;;;;;;;;;;;;5037789;28;892;-71
2024/01/18 00:56:56;;;;;;;;;;;;;;;;;;5035490;28;1125;-71
2024/01/18 00:59:21;;;;;;;;;;;;;;;;;;5036966;28;832;-71
2024/01/18 01:01:46;;;;;;;;;;;;;;;;;;5019178;28;1177;-72
2024/01/18 01:04:12;;;;;;;;;;;;;;;;;;5019254;28;1287;-71
2024/01/18 01:06:37;;;;;;;;;;;;;;;;;;5036670;28;1970;-71
2024/01/18 01:09:03;;;;;;;;;;;;;;;;;;5037037;28;900;-71
2024/01/18 01:11:29;;;;;;;;;;;;;;;;;;5037189;28;916;-71
2024/01/18 01:13:54;;;;;;;;;;;;;;;;;;5036873;28;888;-71
2024/01/18 01:16:20;;;;;;;;;;;;;;;;;;5036868;28;1047;-71
2024/01/18 01:18:45;;;;;;;;;;;;;;;;;;5036640;28;849;-71
2024/01/18 01:21:11;;;;;;;;;;;;;;;;;;5036303;28;900;-71
2024/01/18 01:23:41;;;;;;;;;;;;;;;;;;5018952;28;1125;-71
2024/01/18 01:26:08;;;;;;;;;;;;;;;;;;5018498;28;1902;-71
2024/01/18 01:28:33;;;;;;;;;;;;;;;;;;5036361;28;904;-71
2024/01/18 01:30:58;;;;;;;;;;;;;;;;;;5036085;28;842;-71
2024/01/18 01:33:24;;;;;;;;;;;;;;;;;;5035832;28;900;-71
2024/01/18 01:35:49;;;;;;;;;;;;;;;;;;5035980;28;964;-71
2024/01/18 01:38:14;;;;;;;;;;;;;;;;;;5035862;28;817;-71
2024/01/18 01:40:39;;;;;;;;;;;;;;;;;;5017487;28;1275;-71
2024/01/18 01:43:04;;;;;;;;;;;;;;;;;;5036016;28;883;-71
2024/01/18 01:45:31;;;;;;;;;;;;;;;;;;5018167;28;1898;-71
2024/01/18 01:47:56;;;;;;;;;;;;;;;;;;5035678;28;884;-71
2024/01/18 01:50:21;;;;;;;;;;;;;;;;;;5017882;28;1153;-71
2024/01/18 01:52:47;;;;;;;;;;;;;;;;;;5017962;28;1290;-71
2024/01/18 01:55:13;;;;;;;;;;;;;;;;;;5035645;28;985;-71
2024/01/18 01:57:39;;;;;;;;;;;;;;;;;;5037174;28;1120;-77
2024/01/18 02:00:05;;;;;;;;;;;;;;;;;;5020108;28;1240;-77
2024/01/18 02:02:30;;;;;;;;;;;;;;;;;;5019133;28;1514;-77
2024/01/18 02:04:55;;;;;;;;;;;;;;;;;;5036882;28;774;-78
2024/01/18 02:07:21;;;;;;;;;;;;;;;;;;5036961;28;1980;-77
2024/01/18 02:09:46;;;;;;;;;;;;;;;;;;5036657;28;868;-78
2024/01/18 02:12:13;;;;;;;;;;;;;;;;;;5036368;28;861;-71
2024/01/18 02:14:38;;;;;;;;;;;;;;;;;;5018030;28;1090;-71
2024/01/18 02:17:04;;;;;;;;;;;;;;;;;;5035266;28;1159;-71
2024/01/18 02:19:29;;;;;;;;;;;;;;;;;;5018138;28;1219;-70
2024/01/18 02:21:54;;;;;;;;;;;;;;;;;;5036196;28;907;-70
2024/01/18 02:24:21;;;;;;;;;;;;;;;;;;5036480;28;943;-71
2024/01/18 02:26:46;;;;;;;;;;;;;;;;;;5035852;28;1965;-71
2024/01/18 02:29:12;;;;;;;;;;;;;;;;;;5036873;28;936;-70
2024/01/18 02:31:37;;;;;;;;;;;;;;;;;;5039646;28;908;-76
2024/01/18 02:34:07;;;;;;;;;;;;;;;;;;5041015;28;1058;-78
2024/01/18 02:36:34;;;;;;;;;;;;;;;;;;5040904;28;864;-76
2024/01/18 02:38:59;;;;;;;;;;;;;;;;;;5023420;28;1029;-76
2024/01/18 02:41:24;;;;;;;;;;;;;;;;;;5023131;28;1418;-77
2024/01/18 02:43:50;;;;;;;;;;;;;;;;;;5041042;28;813;-75
2024/01/18 02:46:16;;;;;;;;;;;;;;;;;;5040664;28;2009;-76
2024/01/18 02:48:43;;;;;;;;;;;;;;;;;;5038774;28;1168;-75
2024/01/18 02:51:08;;;;;;;;;;;;;;;;;;5040491;28;829;-76
2024/01/18 02:53:33;;;;;;;;;;;;;;;;;;5023832;28;1197;-75
2024/01/18 02:55:58;;;;;;;;;;;;;;;;;;5041528;28;832;-76
2024/01/18 02:58:24;;;;;;;;;;;;;;;;;;5020630;28;1274;-70
2024/01/18 03:00:49;;;;;;;;;;;;;;;;;;5035741;28;904;-70
2024/01/18 03:03:14;;;;;;;;;;;;;;;;;;5035579;28;995;-70
2024/01/18 03:05:40;;;;;;;;;;;;;;;;;;5035732;28;1910;-70
2024/01/18 03:08:05;;;;;;;;;;;;;;;;;;5035318;28;1015;-70
2024/01/18 03:10:30;;;;;;;;;;;;;;;;;;5015593;28;1264;-71
2024/01/18 03:12:56;;;;;;;;;;;;;;;;;;5033316;28;1209;-71
2024/01/18 03:15:21;;;;;;;;;;;;;;;;;;5034935;28;1208;-71
2024/01/18 03:17:47;;;;;;;;;;;;;;;;;;5035179;28;943;-71
2024/01/18 03:20:12;;;;;;;;;;;;;;;;;;5034787;28;829;-70
2024/01/18 03:22:40;;;;;;;;;;;;;;;;;;5035006;28;809;-71
2024/01/18 03:25:06;;;;;;;;;;;;;;;;;;5034622;28;892;-71
2024/01/18 03:27:31;;;;;;;;;;;;;;;;;;5017396;28;1890;-71
2024/01/18 03:29:56;;;;;;;;;;;;;;;;;;5016913;28;1193;-71
2024/01/18 03:32:22;;;;;;;;;;;;;;;;;;5034783;28;822;-71
2024/01/18 03:34:47;;;;;;;;;;;;;;;;;;5034616;28;899;-71
2024/01/18 03:37:12;;;;;;;;;;;;;;;;;;5034546;28;905;-71
2024/01/18 03:39:37;;;;;;;;;;;;;;;;;;5036045;28;1002;-71
2024/01/18 03:42:03;;;;;;;;;;;;;;;;;;5034958;28;817;-71
2024/01/18 03:44:28;;;;;;;;;;;;;;;;;;5034533;28;876;-71
2024/01/18 03:46:53;;;;;;;;;;;;;;;;;;5016286;28;1902;-71
2024/01/18 03:49:20;;;;;;;;;;;;;;;;;;5034114;28;900;-71
2024/01/18 03:51:45;;;;;;;;;;;;;;;;;;5015998;28;1325;-71
2024/01/18 03:54:13;;;;;;;;;;;;;;;;;;5015244;28;1416;-71
2024/01/18 03:56:38;;;;;;;;;;;;;;;;;;5034155;28;916;-77
2024/01/18 03:59:03;;;;;;;;;;;;;;;;;;5034786;28;1085;-77
2024/01/18 04:01:32;;;;;;;;;;;;;;;;;;5016559;28;1279;-78
2024/01/18 04:03:58;;;;;;;;;;;;;;;;;;5034382;28;908;-71
2024/01/18 04:06:23;;;;;;;;;;;;;;;;;;5033258;28;1895;-71
2024/01/18 04:08:48;;;;;;;;;;;;;;;;;;5015040;28;1286;-71
2024/01/18 04:11:14;;;;;;;;;;;;;;;;;;5033134;28;876;-71
2024/01/18 04:13:39;;;;;;;;;;;;;;;;;;5033453;28;958;-71
2024/01/18 04:16:04;;;;;;;;;;;;;;;;;;5032963;28;853;-71
2024/01/18 04:18:30;;;;;;;;;;;;;;;;;;5015475;28;1327;-71
2024/01/18 04:20:55;;;;;;;;;;;;;;;;;;5033156;28;931;-71
2024/01/18 04:23:21;;;;;;;;;;;;;;;;;;5032753;28;797;-71
2024/01/18 04:25:47;;;;;;;;;;;;;;;;;;5033246;28;1927;-72
2024/01/18 04:28:12;;;;;;;;;;;;;;;;;;5015893;28;1165;-71
2024/01/18 04:30:38;;;;;;;;;;;;;;;;;;5016993;28;1330;-71
2024/01/18 04:33:03;;;;;;;;;;;;;;;;;;5033612;28;888;-71
2024/01/18 04:35:28;;;;;;;;;;;;;;;;;;5015049;28;1277;-70
2024/01/18 04:37:53;;;;;;;;;;;;;;;;;;5032720;28;908;-71
2024/01/18 04:40:18;;;;;;;;;;;;;;;;;;5032844;28;1047;-71
2024/01/18 04:42:44;;;;;;;;;;;;;;;;;;5015255;28;1187;-71
2024/01/18 04:45:09;;;;;;;;;;;;;;;;;;5032974;28;836;-70
2024/01/18 04:47:35;;;;;;;;;;;;;;;;;;5032633;28;1969;-71
2024/01/18 04:50:00;;;;;;;;;;;;;;;;;;5032816;28;821;-71
2024/01/18 04:52:25;;;;;;;;;;;;;;;;;;5032414;28;880;-71
2024/01/18 04:54:51;;;;;;;;;;;;;;;;;;5032592;28;975;-71
2024/01/18 04:57:16;;;;;;;;;;;;;;;;;;5032344;28;866;-70
2024/01/18 04:59:42;;;;;;;;;;;;;;;;;;5032537;28;813;-70
2024/01/18 05:02:07;;;;;;;;;;;;;;;;;;5030914;28;1121;-72
2024/01/18 05:04:32;;;;;;;;;;;;;;;;;;5027526;28;1110;-72
2024/01/18 05:06:57;;;;;;;;;;;;;;;;;;5029324;28;1973;-72
2024/01/18 05:09:23;;;;;;;;;;;;;;;;;;5030386;28;1161;-72
2024/01/18 05:11:48;;;;;;;;;;;;;;;;;;5029860;28;1220;-72
2024/01/18 05:14:13;;;;;;;;;;;;;;;;;;5012886;28;1137;-71
2024/01/18 05:16:40;;;;;;;;;;;;;;;;;;5030982;28;1157;-71
2024/01/18 05:19:08;;;;;;;;;;;;;;;;;;5015481;28;1588;-71
2024/01/18 05:21:33;;;;;;;;;;;;;;;;;;5029755;28;1294;-78
2024/01/18 05:23:58;;;;;;;;;;;;;;;;;;5032775;28;1221;-77
2024/01/18 05:26:24;;;;;;;;;;;;;;;;;;5026020;28;2015;-78
2024/01/18 05:28:49;;;;;;;;;;;;;;;;;;5015125;28;1421;-77
2024/01/18 05:31:14;;;;;;;;;;;;;;;;;;5032383;28;1197;-78
2024/01/18 05:33:39;;;;;;;;;;;;;;;;;;5032367;28;1134;-71
2024/01/18 05:36:05;;;;;;;;;;;;;;;;;;5031796;28;1169;-71
2024/01/18 05:38:33;;;;;;;;;;;;;;;;;;5034278;28;1216;-71
2024/01/18 05:40:58;;;;;;;;;;;;;;;;;;5036006;28;935;-78
2024/01/18 05:43:24;;;;;;;;;;;;;;;;;;5002190;28;1148;-78
2024/01/18 05:45:49;;;;;;;;;;;;;;;;;;5035881;28;1894;-78
2024/01/18 05:48:14;;;;;;;;;;;;;;;;;;5018772;28;1145;-77
2024/01/18 05:50:40;;;;;;;;;;;;;;;;;;5018211;28;1051;-78
2024/01/18 05:53:05;;;;;;;;;;;;;;;;;;5018866;28;1283;-77
2024/01/18 05:55:30;;;;;;;;;;;;;;;;;;5036062;28;877;-77
2024/01/18 05:57:55;;;;;;;;;;;;;;;;;;5035617;28;852;-71
2024/01/18 06:00:21;;;;;;;;;;;;;;;;;;5017343;28;1577;-71
2024/01/18 06:02:46;;;;;;;;;;;;;;;;;;5034883;28;820;-71
2024/01/18 06:05:11;;;;;;;;;;;;;;;;;;5017437;28;1302;-71
2024/01/18 06:07:36;;;;;;;;;;;;;;;;;;5034932;28;1968;-71
2024/01/18 06:10:03;;;;;;;;;;;;;;;;;;5017341;28;1070;-72
2024/01/18 06:12:28;;;;;;;;;;;;;;;;;;5017306;28;1327;-72
2024/01/18 06:14:54;;;;;;;;;;;;;;;;;;5035515;28;892;-71
2024/01/18 06:17:19;;;;;;;;;;;;;;;;;;5034557;28;917;-72
2024/01/18 06:19:44;;;;;;;;;;;;;;;;;;5035160;28;881;-72
2024/01/18 06:22:10;;;;;;;;;;;;;;;;;;5016845;28;1379;-72
2024/01/18 06:24:35;;;;;;;;;;;;;;;;;;5016852;28;1426;-71
2024/01/18 06:27:01;;;;;;;;;;;;;;;;;;5034739;28;1886;-71
2024/01/18 06:29:29;;;;;;;;;;;;;;;;;;5034452;28;896;-72
2024/01/18 06:31:55;;;;;;;;;;;;;;;;;;5034443;28;833;-72
2024/01/18 06:34:20;;;;;;;;;;;;;;;;;;5034340;28;1161;-72
2024/01/18 06:36:45;;;;;;;;;;;;;;;;;;5012354;28;1218;-72
2024/01/18 06:39:11;;;;;;;;;;;;;;;;;;5028733;28;1216;-71
2024/01/18 06:41:36;;;;;;;;;;;;;;;;;;5029573;28;1150;-71
2024/01/18 06:44:01;;;;;;;;;;;;;;;;;;5000501;28;1443;-72
2024/01/18 06:46:27;;;;;;;;;;;;;;;;;;5027921;28;1906;-72
2024/01/18 06:48:53;;;;;;;;;;;;;;;;;;5029817;28;1141;-72
2024/01/18 06:51:21;;;;;;;;;;;;;;;;;;5026726;28;1198;-72
2024/01/18 06:53:47;;;;;;;;;;;;;;;;;;5030158;28;1113;-72
2024/01/18 06:56:12;;;;;;;;;;;;;;;;;;5012264;28;1420;-72
2024/01/18 06:58:38;;;;;;;;;;;;;;;;;;5030528;28;1130;-72
2024/01/18 07:01:03;;;;;;;;;;;;;;;;;;5029904;28;1118;-72
2024/01/18 07:03:30;;;;;;;;;;;;;;;;;;5029846;28;1142;-73
2024/01/18 07:05:55;;;;;;;;;;;;;;;;;;5027947;28;1886;-71
2024/01/18 07:08:21;;;;;;;;;;;;;;;;;;5024183;28;1141;-72
2024/01/18 07:10:48;;;;;;;;;;;;;;;;;;5029722;28;1251;-71
2024/01/18 07:13:13;;;;;;;;;;;;;;;;;;5029905;28;1085;-71
2024/01/18 07:15:38;;;;;;;;;;;;;;;;;;5028961;28;1403;-71
2024/01/18 07:18:03;;;;;;;;;;;;;;;;;;5015525;28;1148;-71
2024/01/18 07:20:29;;;;;;;;;;;;;;;;;;5015744;28;1397;-71
2024/01/18 07:22:55;;;;;;;;;;;;;;;;;;5033239;28;840;-71
2024/01/18 07:25:21;;;;;;;;;;;;;;;;;;5015282;28;1431;-71
2024/01/18 07:27:47;;;;;;;;;;;;;;;;;;5012857;28;1907;-71
2024/01/18 07:30:14;;;;;;;;;;;;;;;;;;5033447;28;837;-71
2024/01/18 07:32:39;;;;;;;;;;;;;;;;;;5032563;28;809;-71
2024/01/18 07:35:04;;;;;;;;;;;;;;;;;;5013478;28;1192;-71
2024/01/18 07:37:30;;;;;;;;;;;;;;;;;;5015381;28;1294;-72
2024/01/18 07:39:55;;;;;;;;;;;;;;;;;;5033110;28;749;-71
2024/01/18 07:42:20;;;;;;;;;;;;;;;;;;5033175;28;1047;-71
2024/01/18 07:44:47;;;;;;;;;;;;;;;;;;5015143;28;1256;-71
2024/01/18 07:47:12;;;;;;;;;;;;;;;;;;5016527;28;1910;-71
2024/01/18 07:49:42;;;;;;;;;;;;;;;;;;5033453;28;840;-71
2024/01/18 07:52:08;;;;;;;;;;;;;;;;;;5033289;28;876;-71
2024/01/18 07:54:33;;;;;;;;;;;;;;;;;;5015393;28;1189;-71
2024/01/18 07:56:58;;;;;;;;;;;;;;;;;;5015101;28;1185;-71
2024/01/18 07:59:23;;;;;;;;;;;;;;;;;;5033139;28;844;-71
2024/01/18 08:01:49;;;;;;;;;;;;;;;;;;5033075;28;955;-71
2024/01/18 08:04:15;;;;;;;;;;;;;;;;;;5013555;28;1224;-72
2024/01/18 08:06:42;;;;;;;;;;;;;;;;;;5010359;28;1910;-71
2024/01/18 08:09:07;;;;;;;;;;;;;;;;;;5024339;28;1209;-71
2024/01/18 08:11:33;;;;;;;;;;;;;;;;;;4994002;28;1384;-71
2024/01/18 08:13:58;;;;;;;;;;;;;;;;;;5029160;28;1213;-71
2024/01/18 08:16:23;;;;;;;;;;;;;;;;;;5046969;28;1358;-71
2024/01/18 08:18:49;;;;;;;;;;;;;;;;;;5046435;28;1318;-71
2024/01/18 08:21:14;;;;;;;;;;;;;;;;;;5032061;28;1035;-72
2024/01/18 08:23:39;;;;;;;;;;;;;;;;;;5030409;28;1236;-72
2024/01/18 08:26:06;;;;;;;;;;;;;;;;;;5029838;28;1913;-76
2024/01/18 08:28:32;;;;;;;;;;;;;;;;;;5030222;28;1190;-77
2024/01/18 08:30:57;;;;;;;;;;;;;;;;;;5029259;28;1154;-76
2024/01/18 08:33:22;;;;;;;;;;;;;;;;;;5030046;28;1318;-77
2024/01/18 08:35:48;;;;;;;;;;;;;;;;;;5032927;28;883;-77
2024/01/18 08:38:13;;;;;;;;;;;;;;;;;;5033078;28;916;-77
2024/01/18 08:40:38;;;;;;;;;;;;;;;;;;5036427;28;896;-71
2024/01/18 08:43:03;;;;;;;;;;;;;;;;;;5036186;28;841;-71
2024/01/18 08:45:32;;;;;;;;;;;;;;;;;;5036651;28;1961;-71
2024/01/18 08:47:57;;;;;;;;;;;;;;;;;;5035423;28;877;-71
2024/01/18 08:50:23;;;;;;;;;;;;;;;;;;5018163;28;1371;-71
2024/01/18 08:52:51;;;;;;;;;;;;;;;;;;5036226;28;983;-71
2024/01/18 08:55:16;;;;;;;;;;;;;;;;;;5035547;28;845;-71
2024/01/18 08:57:41;;;;;;;;;;;;;;;;;;5034683;28;1156;-71
2024/01/18 09:00:07;;;;;;;;;;;;;;;;;;5034845;28;1161;-71
2024/01/18 09:02:32;;;;;;;;;;;;;;;;;;5034698;28;1157;-71
2024/01/18 09:04:58;;;;;;;;;;;;;;;;;;5034923;28;1157;-71
2024/01/18 09:07:24;;;;;;;;;;;;;;;;;;5013792;28;1910;-72
2024/01/18 09:09:49;;;;;;;;;;;;;;;;;;5031171;28;1204;-71
2024/01/18 09:12:15;;;;;;;;;;;;;;;;;;5033821;28;1283;-71
2024/01/18 09:14:42;;;;;;;;;;;;;;;;;;5016836;28;1310;-71
2024/01/18 09:17:09;;;;;;;;;;;;;;;;;;5017373;28;1165;-71
2024/01/18 09:19:35;;;;;;;;;;;;;;;;;;5035658;28;818;-71
2024/01/18 09:22:00;;;;;;;;;;;;;;;;;;5036265;28;774;-71
2024/01/18 09:24:26;;;;;;;;;;;;;;;;;;5035594;28;983;-71
2024/01/18 09:26:51;;;;;;;;;;;;;;;;;;5035298;28;1970;-70
2024/01/18 09:29:16;;;;;;;;;;;;;;;;;;5035455;28;833;-71
2024/01/18 09:31:41;;;;;;;;;;;;;;;;;;5035362;28;904;-71
2024/01/18 09:34:09;;;;;;;;;;;;;;;;;;5035572;28;892;-71
2024/01/18 09:36:34;;;;;;;;;;;;;;;;;;5034160;28;967;-71
2024/01/18 09:39:00;;;;;;;;;;;;;;;;;;5035339;28;963;-71
2024/01/18 09:41:29;;;;;;;;;;;;;;;;;;5034209;28;1356;-71
2024/01/18 09:43:57;;;;;;;;;;;;;;;;;;5035352;28;927;-72
2024/01/18 09:46:23;;;;;;;;;;;;;;;;;;5034946;28;1950;-72
2024/01/18 09:48:48;;;;;;;;;;;;;;;;;;5035510;28;888;-72
2024/01/18 09:51:14;;;;;;;;;;;;;;;;;;5033239;28;1302;-72
2024/01/18 09:53:44;;;;;;;;;;;;;;;;;;5034113;28;1168;-71
2024/01/18 09:56:22;;;;;;;;;;;;;;;;;;5035736;28;868;-72
2024/01/18 09:58:47;;;;;;;;;;;;;;;;;;5035128;28;829;-72
2024/01/18 10:01:18;;;;;;;;;;;;;;;;;;5036146;28;1002;-72
2024/01/18 10:03:43;;;;;;;;;;;;;;;;;;5034871;28;829;-72
2024/01/18 10:06:09;;;;;;;;;;;;;;;;;;5031616;28;1898;-72
2024/01/18 10:08:34;;;;;;;;;;;;;;;;;;5033410;28;766;-71
2024/01/18 10:10:59;;;;;;;;;;;;;;;;;;5033761;28;907;-72
2024/01/18 10:13:25;;;;;;;;;;;;;;;;;;5047538;28;1125;-72
2024/01/18 10:15:50;;;;;;;;;;;;;;;;;;5032750;28;1045;-72
2024/01/18 10:18:15;;;;;;;;;;;;;;;;;;5015136;28;1161;-72
2024/01/18 10:20:41;;;;;;;;;;;;;;;;;;5019627;28;1240;-72
2024/01/18 10:23:07;;;;;;;;;;;;;;;;;;5011482;28;1217;-72
2024/01/18 10:25:33;;;;;;;;;;;;;;;;;;5015164;28;1958;-72
2024/01/18 10:28:01;;;;;;;;;;;;;;;;;;5014562;28;838;-71
2024/01/18 10:30:26;;;;;;;;;;;;;;;;;;5014387;28;849;-71
2024/01/18 10:32:52;;;;;;;;;;;;;;;;;;5013164;28;1264;-71
2024/01/18 10:35:18;;;;;;;;;;;;;;;;;;5014526;28;876;-71
2024/01/18 10:37:43;;;;;;;;;;;;;;;;;;5013190;28;892;-72
2024/01/18 10:40:10;;;;;;;;;;;;;;;;;;5014855;28;789;-72
2024/01/18 10:42:35;;;;;;;;;;;;;;;;;;5014717;28;833;-71
2024/01/18 10:45:01;;;;;;;;;;;;;;;;;;5027480;28;1225;-77
2024/01/18 10:47:26;;;;;;;;;;;;;;;;;;5033406;28;1887;-77
2024/01/18 10:49:53;;;;;;;;;;;;;;;;;;5034855;28;999;-71
2024/01/18 10:52:18;;;;;;;;;;;;;;;;;;5033737;28;999;-71
2024/01/18 10:54:45;;;;;;;;;;;;;;;;;;5038140;28;1152;-72
2024/01/18 10:57:12;;;;;;;;;;;;;;;;;;5069946;28;1358;-72
2024/01/18 10:59:37;;;;;;;;;;;;;;;;;;5055028;28;857;-72
2024/01/18 11:02:02;;;;;;;;;;;;;;;;;;5048595;28;1034;-72
2024/01/18 11:04:28;;;;;;;;;;;;;;;;;;5037734;28;1189;-72
2024/01/18 11:06:55;;;;;;;;;;;;;;;;;;5032543;28;1915;-72
2024/01/18 11:09:22;;;;;;;;;;;;;;;;;;5033134;28;1305;-73
2024/01/18 11:11:48;;;;;;;;;;;;;;;;;;5032072;28;1212;-72
2024/01/18 11:14:13;;;;;;;;;;;;;;;;;;5031910;28;1174;-72
2024/01/18 11:16:39;;;;;;;;;;;;;;;;;;5031249;28;1356;-73
2024/01/18 11:19:04;;;;;;;;;;;;;;;;;;5012438;28;1549;-73
2024/01/18 11:21:40;;;;;;;;;;;;;;;;;;5031633;28;1197;-74
2024/01/18 11:24:08;;;;;;;;;;;;;;;;;;5013062;28;1149;-72
2024/01/18 11:26:36;;;;;;;;;;;;;;;;;;5031323;28;1894;-72
2024/01/18 11:29:24;;;;;;;;;;;;;;;;;;5030980;28;1158;-72
2024/01/18 11:31:50;;;;;;;;;;;;;;;;;;5028645;28;1205;-72
2024/01/18 11:34:42;;;;;;;;;;;;;;;;;;5011970;28;1430;-72
2024/01/18 11:37:14;;;;;;;;;;;;;;;;;;5027189;28;1151;-72
2024/01/18 11:39:52;;;;;;;;;;;;;;;;;;5034344;28;896;-70
2024/01/18 11:42:18;;;;;;;;;;;;;;;;;;5032441;28;1382;-72
2024/01/18 11:44:53;;;;;;;;;;;;;;;;;;5035441;28;991;-71
2024/01/18 11:47:18;;;;;;;;;;;;;;;;;;5034212;28;1875;-71
2024/01/18 11:49:44;;;;;;;;;;;;;;;;;;5034260;28;994;-72
2024/01/18 11:52:10;;;;;;;;;;;;;;;;;;5034562;28;995;-71
2024/01/18 11:54:36;;;;;;;;;;;;;;;;;;5035351;28;924;-71
2024/01/18 11:57:03;;;;;;;;;;;;;;;;;;5034902;28;860;-71
2024/01/18 11:59:30;;;;;;;;;;;;;;;;;;5016890;28;1185;-72
2024/01/18 12:01:56;;;;;;;;;;;;;;;;;;5016062;28;1299;-71
2024/01/18 12:04:21;;;;;;;;;;;;;;;;;;5015802;28;1239;-71
2024/01/18 12:06:47;;;;;;;;;;;;;;;;;;5015587;28;1965;-71
2024/01/18 12:09:12;;;;;;;;;;;;;;;;;;5030294;28;1200;-71
2024/01/18 12:11:37;;;;;;;;;;;;;;;;;;5028758;28;1367;-77
2024/01/18 12:14:02;;;;;;;;;;;;;;;;;;5032245;28;1157;-77
2024/01/18 12:16:30;;;;;;;;;;;;;;;;;;5037487;28;1237;-77
2024/01/18 12:18:56;;;;;;;;;;;;;;;;;;5019630;28;1363;-77
2024/01/18 12:21:22;;;;;;;;;;;;;;;;;;5037341;28;987;-77
2024/01/18 12:23:47;;;;;;;;;;;;;;;;;;5019417;28;1228;-71
2024/01/18 12:26:12;;;;;;;;;;;;;;;;;;5036675;28;1902;-71
2024/01/18 12:28:38;;;;;;;;;;;;;;;;;;5036378;28;943;-71
2024/01/18 12:31:03;;;;;;;;;;;;;;;;;;5019181;28;1162;-71
2024/01/18 12:33:34;;;;;;;;;;;;;;;;;;5036624;28;845;-71
2024/01/18 12:36:01;;;;;;;;;;;;;;;;;;5036629;28;884;-70
2024/01/18 12:38:26;;;;;;;;;;;;;;;;;;5036759;28;817;-72
2024/01/18 12:40:52;;;;;;;;;;;;;;;;;;5018853;28;1184;-70
2024/01/18 12:43:17;;;;;;;;;;;;;;;;;;5036016;28;903;-71
2024/01/18 12:45:42;;;;;;;;;;;;;;;;;;5036232;28;1906;-71
2024/01/18 12:48:08;;;;;;;;;;;;;;;;;;5018589;28;1395;-71
2024/01/18 12:50:36;;;;;;;;;;;;;;;;;;5036596;28;1054;-71
2024/01/18 12:53:01;;;;;;;;;;;;;;;;;;5036337;28;856;-71
2024/01/18 12:55:27;;;;;;;;;;;;;;;;;;5018042;28;1141;-71
2024/01/18 12:57:56;;;;;;;;;;;;;;;;;;5018097;28;1198;-71
2024/01/18 13:00:22;;;;;;;;;;;;;;;;;;5018358;28;1268;-70
2024/01/18 13:02:48;;;;;;;;;;;;;;;;;;5035705;28;888;-71
2024/01/18 13:05:17;;;;;;;;;;;;;;;;;;5017835;28;1220;-73
2024/01/18 13:07:42;;;;;;;;;;;;;;;;;;5035998;28;1961;-75
2024/01/18 13:10:07;;;;;;;;;;;;;;;;;;5033911;28;1241;-72
2024/01/18 13:12:33;;;;;;;;;;;;;;;;;;5029921;28;1261;-72
2024/01/18 13:14:59;;;;;;;;;;;;;;;;;;5032885;28;1169;-72
2024/01/18 13:17:24;;;;;;;;;;;;;;;;;;5035244;28;999;-72
2024/01/18 13:19:53;;;;;;;;;;;;;;;;;;5050853;28;1175;-70
2024/01/18 13:22:18;;;;;;;;;;;;;;;;;;5035719;28;920;-71
2024/01/18 13:24:43;;;;;;;;;;;;;;;;;;5034771;28;987;-71
2024/01/18 13:27:10;;;;;;;;;;;;;;;;;;5033342;28;1894;-71
2024/01/18 13:29:35;;;;;;;;;;;;;;;;;;5033815;28;1456;-71
2024/01/18 13:32:00;;;;;;;;;;;;;;;;;;5034912;28;1179;-70
2024/01/18 13:34:26;;;;;;;;;;;;;;;;;;5034169;28;1301;-71
2024/01/18 13:36:51;;;;;;;;;;;;;;;;;;5036088;28;852;-71
2024/01/18 13:39:17;;;;;;;;;;;;;;;;;;5035486;28;829;-71
2024/01/18 13:41:42;;;;;;;;;;;;;;;;;;5036379;28;726;-71
2024/01/18 13:44:08;;;;;;;;;;;;;;;;;;5034734;28;1191;-72
2024/01/18 13:46:33;;;;;;;;;;;;;;;;;;5035613;28;1949;-72
2024/01/18 13:48:58;;;;;;;;;;;;;;;;;;5035542;28;746;-71
2024/01/18 13:51:24;;;;;;;;;;;;;;;;;;5034304;28;1179;-72
2024/01/18 13:53:50;;;;;;;;;;;;;;;;;;5035140;28;601;-72
2024/01/18 13:56:16;;;;;;;;;;;;;;;;;;5049695;28;1294;-72
2024/01/18 13:58:41;;;;;;;;;;;;;;;;;;5034939;28;825;-72
2024/01/18 14:01:07;;;;;;;;;;;;;;;;;;5035027;28;825;-72
2024/01/18 14:03:32;;;;;;;;;;;;;;;;;;5034003;28;849;-72
2024/01/18 14:06:00;;;;;;;;;;;;;;;;;;5034436;28;1898;-72
2024/01/18 14:08:25;;;;;;;;;;;;;;;;;;5034891;28;888;-72
2024/01/18 14:10:50;;;;;;;;;;;;;;;;;;5032297;28;1204;-72
2024/01/18 14:13:18;;;;;;;;;;;;;;;;;;5028793;28;1153;-72
2024/01/18 14:15:43;;;;;;;;;;;;;;;;;;5031154;28;1211;-71
2024/01/18 14:18:10;;;;;;;;;;;;;;;;;;5023024;28;1177;-72
2024/01/18 14:20:35;;;;;;;;;;;;;;;;;;5031407;28;1217;-72
2024/01/18 14:23:00;;;;;;;;;;;;;;;;;;5032558;28;1397;-71
2024/01/18 14:25:25;;;;;;;;;;;;;;;;;;5016058;28;1141;-71
2024/01/18 14:27:51;;;;;;;;;;;;;;;;;;5034615;28;1906;-71
2024/01/18 14:30:16;;;;;;;;;;;;;;;;;;5034401;28;986;-71
2024/01/18 14:32:41;;;;;;;;;;;;;;;;;;5034677;28;999;-71
2024/01/18 14:35:07;;;;;;;;;;;;;;;;;;5034378;28;900;-71
2024/01/18 14:37:33;;;;;;;;;;;;;;;;;;5016473;28;1345;-71
2024/01/18 14:39:58;;;;;;;;;;;;;;;;;;5034400;28;991;-71
2024/01/18 14:42:23;;;;;;;;;;;;;;;;;;5016026;28;1317;-71
2024/01/18 14:44:49;;;;;;;;;;;;;;;;;;5034178;28;904;-71
2024/01/18 14:47:21;;;;;;;;;;;;;;;;;;5034257;28;1946;-71
2024/01/18 14:49:46;;;;;;;;;;;;;;;;;;5016492;28;1283;-71
2024/01/18 14:52:12;;;;;;;;;;;;;;;;;;5034289;28;908;-71
2024/01/18 14:54:37;;;;;;;;;;;;;;;;;;5016263;28;1551;-71
2024/01/18 14:57:02;;;;;;;;;;;;;;;;;;5033641;28;900;-71
2024/01/18 14:59:27;;;;;;;;;;;;;;;;;;5033895;28;841;-71
2024/01/18 15:01:53;;;;;;;;;;;;;;;;;;5033555;28;908;-71
2024/01/18 15:04:18;;;;;;;;;;;;;;;;;;5033784;28;918;-70
2024/01/18 15:06:43;;;;;;;;;;;;;;;;;;5034282;28;1910;-77
2024/01/18 15:09:08;;;;;;;;;;;;;;;;;;5034025;28;844;-76
2024/01/18 15:11:35;;;;;;;;;;;;;;;;;;5015368;28;1233;-76
2024/01/18 15:14:00;;;;;;;;;;;;;;;;;;5013104;28;1222;-76
2024/01/18 15:16:25;;;;;;;;;;;;;;;;;;5029156;28;1098;-77
2024/01/18 15:18:51;;;;;;;;;;;;;;;;;;5032932;28;1260;-77
2024/01/18 15:21:16;;;;;;;;;;;;;;;;;;5015821;28;1275;-76
2024/01/18 15:23:41;;;;;;;;;;;;;;;;;;5034105;28;919;-77
2024/01/18 15:26:08;;;;;;;;;;;;;;;;;;5034360;28;1906;-77
2024/01/18 15:28:33;;;;;;;;;;;;;;;;;;5032537;28;1258;-78
2024/01/18 15:30:59;;;;;;;;;;;;;;;;;;5034149;28;1051;-77
2024/01/18 15:33:24;;;;;;;;;;;;;;;;;;5034201;28;953;-77
2024/01/18 15:35:49;;;;;;;;;;;;;;;;;;5049296;28;1188;-71
2024/01/18 15:38:15;;;;;;;;;;;;;;;;;;5033391;28;976;-71
2024/01/18 15:40:40;;;;;;;;;;;;;;;;;;5034351;28;951;-71
2024/01/18 15:43:05;;;;;;;;;;;;;;;;;;5047869;28;1227;-70
2024/01/18 15:45:33;;;;;;;;;;;;;;;;;;5033122;28;991;-71
2024/01/18 15:47:59;;;;;;;;;;;;;;;;;;5031754;28;1894;-70
2024/01/18 15:50:24;;;;;;;;;;;;;;;;;;5031913;28;1384;-70
2024/01/18 15:52:49;;;;;;;;;;;;;;;;;;5033222;28;998;-70
2024/01/18 15:55:14;;;;;;;;;;;;;;;;;;5031542;28;1223;-70
2024/01/18 15:57:40;;;;;;;;;;;;;;;;;;5048254;28;1136;-72
2024/01/18 16:00:07;;;;;;;;;;;;;;;;;;5031768;28;1510;-72
2024/01/18 16:02:32;;;;;;;;;;;;;;;;;;5033028;28;880;-72
2024/01/18 16:04:58;;;;;;;;;;;;;;;;;;5033249;28;841;-73
2024/01/18 16:07:23;;;;;;;;;;;;;;;;;;5014879;28;1960;-72
2024/01/18 16:09:48;;;;;;;;;;;;;;;;;;5032779;28;824;-72
2024/01/18 16:12:13;;;;;;;;;;;;;;;;;;5031423;28;1192;-71
2024/01/18 16:14:43;;;;;;;;;;;;;;;;;;5030190;28;1225;-70
2024/01/18 16:17:08;;;;;;;;;;;;;;;;;;5029882;28;1188;-71
2024/01/18 16:19:33;;;;;;;;;;;;;;;;;;5029326;28;1271;-71
2024/01/18 16:21:58;;;;;;;;;;;;;;;;;;5011351;28;1177;-71
2024/01/18 16:24:24;;;;;;;;;;;;;;;;;;5029310;28;1165;-71
2024/01/18 16:26:49;;;;;;;;;;;;;;;;;;5032107;28;1922;-71
2024/01/18 16:29:14;;;;;;;;;;;;;;;;;;5032729;28;814;-71
2024/01/18 16:31:40;;;;;;;;;;;;;;;;;;5032538;28;829;-72
2024/01/18 16:34:05;;;;;;;;;;;;;;;;;;5032581;28;883;-71
2024/01/18 16:36:31;;;;;;;;;;;;;;;;;;5031548;28;1232;-72
2024/01/18 16:38:56;;;;;;;;;;;;;;;;;;5030408;28;1275;-72
2024/01/18 16:41:21;;;;;;;;;;;;;;;;;;5031917;28;900;-72
2024/01/18 16:43:48;;;;;;;;;;;;;;;;;;5032206;28;864;-72
2024/01/18 16:46:13;;;;;;;;;;;;;;;;;;5031875;28;1972;-72
2024/01/18 16:48:38;;;;;;;;;;;;;;;;;;5047665;28;1164;-72
2024/01/18 16:51:03;;;;;;;;;;;;;;;;;;5031027;28;1167;-72
2024/01/18 16:53:29;;;;;;;;;;;;;;;;;;5033033;28;991;-78
2024/01/18 16:55:54;;;;;;;;;;;;;;;;;;5033291;28;999;-79
2024/01/18 16:58:19;;;;;;;;;;;;;;;;;;5032941;28;912;-78
2024/01/18 17:00:45;;;;;;;;;;;;;;;;;;5050847;28;1317;-79